Idleyld Park, Oregon
Current Conditions -  °F | °C
As of 9:53 AM on Thursday 29 Jan 2015 (Local Time) from KRBG Reporting Station
Overcast Overcast  
Wind Chill: 47°   Ceiling: 600
Heat Index: 47°   Visibility: 9mi
Dew Point: 44°   Wind: 3mph
Humidity: 90%   Direction: 10°N
Pressure: 30.29"   Gusts: NA
Location:  43.32°N, 123.03°W
Report Text: KRBG 291753Z AUTO 01003KT 9SM OVC006 08/07 A3029 RMK AO2 SLP260 T00830067 10083 20072 53001
Loading
Personal Weather Stations






























Interactive Weather Map New forecast layout! Learn more

10-Day Weather Forecast

Advertisements
Track Severe Weather on mobile